x

Sabine Pass, Tx (srst2) Weather Station

11:00am - Mon 20th Nov 2017 All times are CST. -6 hours from GMT.

  • Wind
    9mph, 11mph gusts
  • Air Temp 60°f
  • Sea Pressure 1024.3mb
  • Sabine Pass, Tx
  • Sabine Pass, Tx

More Historic Weather Station data

Upgrade to MSW Pro to gain access to the past 30 days of data for over 8000 Wavebouys and Weather Stations around the globe.

Join

Comparision Forecast

View Surf forecast
   
Mon 11/20 11:00am 9 11 mph 1024.3mb 60f
10:00am 11 15 mph 1024.5mb 58f
9:00am 11 15 mph 1024.1mb 56f
8:00am 8 9 mph 1024mb 49f
7:00am 9 10 mph 1024.1mb 48f
6:00am 8 8 mph 1023.5mb 48f
5:00am 8 9 mph 1023.4mb 48f
4:00am 8 9 mph 1023.3mb 49f
3:00am 8 8 mph 1023.6mb 49f
2:00am 5 6 mph 1023.3mb 51f
1:00am 8 9 mph 1023.3mb 51f
12:00am 6 6 mph 1023.9mb 52f
Sun 11/19 11:00pm 7 7 mph 1024.7mb 53f
10:00pm 3 3 mph 1024.9mb 54f
9:00pm 6 6 mph 1024.7mb 54f
8:00pm 5 5 mph 1024.3mb 54f
7:00pm 8 9 mph 1023.9mb 54f
6:00pm 7 7 mph 1023.5mb 56f
5:00pm 6 7 mph 1023.2mb 59f
4:00pm 9 11 mph 1023mb 62f
3:00pm 13 15 mph 1023.1mb 62f
2:00pm 11 16 mph 1023.4mb 62f
1:00pm 16 20 mph 1024.3mb 61f
12:00pm 17 21 mph 1025.3mb 59f
11:00am 16 22 mph 1026.6mb 58f
10:00am 16 18 mph 1026.9mb 55f
9:00am 20 24 mph 1026.7mb 54f
8:00am 15 22 mph 1026.1mb 51f
7:00am 13 16 mph 1025.1mb 49f
6:00am 13 16 mph 1024.4mb 49f
4:00am 20 23 mph 1022.9mb 51f
3:00am 22 30 mph 1022.4mb 53f
2:00am 23 29 mph 1022.2mb 54f
1:00am 24 30 mph 1021.7mb 56f
12:00am 18 24 mph 1021mb 58f
Sat 11/18 11:00pm 16 21 mph 1020.1mb 61f
10:00pm 17 21 mph 1019mb 64f
9:00pm 22 26 mph 1017.6mb 66f
8:00pm 23 28 mph 1016.3mb 69f
7:00pm 18 22 mph 1014.7mb 72f
6:00pm 17 22 mph 1012.7mb 76f
5:00pm 7 8 mph 1011.5mb 74f
4:00pm 16 21 mph 1011.1mb 75f
3:00pm 14 17 mph 1010.6mb 76f
2:00pm 16 22 mph 1011mb 76f
1:00pm 17 21 mph 1011.3mb 77f
12:00pm 15 18 mph 1011.3mb 76f
11:00am 13 16 mph 1011.9mb 76f
10:00am 13 16 mph 1012.4mb 74f
9:00am 9 11 mph 1012.4mb 74f
8:00am 11 15 mph 1012mb 73f
7:00am 9 11 mph 1011.6mb 73f
6:00am 11 14 mph 1011.1mb 73f
5:00am 14 16 mph 1010.8mb 73f
4:00am 11 14 mph 1011.3mb 73f
3:00am 9 13 mph 1011.8mb 72f
2:00am 11 15 mph 1011.8mb 72f
1:00am 10 14 mph 1012.6mb 72f
12:00am 11 14 mph 1013.4mb 72f
Fri 11/17 11:00pm 10 13 mph 1013.9mb 73f
10:00pm 10 14 mph 1014.1mb 73f
9:00pm 10 13 mph 1014.4mb 73f
8:00pm 10 13 mph 1014.3mb 72f
7:00pm 10 13 mph 1014.3mb 73f
6:00pm 9 13 mph 1014.3mb 72f
5:00pm 10 13 mph 1014.7mb 73f
4:00pm 10 13 mph 1015.2mb 74f
3:00pm 10 11 mph 1015.2mb 74f
2:00pm 10 13 mph 1015.8mb 75f
1:00pm 10 14 mph 1016.9mb 75f
12:00pm 10 11 mph 1017.8mb 74f
11:00am 10 11 mph 1018.3mb 74f
10:00am 9 11 mph 1019mb 74f
9:00am 8 9 mph 1019.3mb 73f
8:00am 7 9 mph 1018.8mb 72f
7:00am 6 8 mph 1018.5mb 70f
6:00am 6 6 mph 1018.3mb 70f
5:00am 6 7 mph 1017.7mb 70f
4:00am 8 10 mph 1017.4mb 71f
3:00am 8 9 mph 1017.6mb 71f
2:00am 8 10 mph 1018mb 70f
1:00am 7 9 mph 1018.3mb 70f
12:00am 7 9 mph 1019mb 70f
Thu 11/16 11:00pm 7 8 mph 1019.1mb 70f
10:00pm 8 10 mph 1019.4mb 70f
9:00pm 8 9 mph 1019.4mb 71f
8:00pm 7 9 mph 1019mb 70f
7:00pm 8 9 mph 1018.7mb 70f